createdAt,value
2022-11-30T00:01:26.054Z,41.6
2022-11-30T00:03:29.150Z,49.5
2022-11-30T00:05:32.209Z,41.1
2022-11-30T00:07:38.551Z,42.3
2022-11-30T00:09:41.624Z,42.6
2022-11-30T00:11:44.698Z,40.7
2022-11-30T00:13:47.796Z,33.9
2022-11-30T00:15:50.879Z,48.3
2022-11-30T00:19:57.045Z,42.1
2022-11-30T00:22:03.389Z,48.7
2022-11-30T00:24:06.415Z,38.7
2022-11-30T00:26:09.513Z,36.6
2022-11-30T00:28:12.580Z,53.6
2022-11-30T00:32:18.753Z,37.1
2022-11-30T00:34:21.809Z,49.1
2022-11-30T00:36:28.110Z,36.2
2022-11-30T00:38:31.194Z,35.6
2022-11-30T00:40:34.292Z,34.2
2022-11-30T00:42:58.589Z,32.4
2022-11-30T00:45:01.675Z,35.3
2022-11-30T00:47:04.741Z,38.4
2022-11-30T00:49:11.040Z,40.9
2022-11-30T00:51:14.124Z,42.7
2022-11-30T00:53:17.245Z,36
2022-11-30T00:57:23.403Z,33.7
2022-11-30T01:01:29.621Z,34.3
2022-11-30T01:05:38.959Z,38.6
2022-11-30T01:09:45.105Z,43.8
2022-11-30T01:11:48.193Z,36.5
2022-11-30T01:13:51.281Z,34.2
2022-11-30T01:18:00.662Z,44.6
2022-11-30T01:22:06.846Z,35.2
2022-11-30T01:24:09.921Z,44
2022-11-30T01:26:13.033Z,32.6
2022-11-30T01:28:16.124Z,40.7
2022-11-30T01:30:19.185Z,34
2022-11-30T01:34:28.550Z,35.3
2022-11-30T01:36:31.659Z,38.9
2022-11-30T01:39:37.902Z,42.9
2022-11-30T01:41:40.945Z,41.5
2022-11-30T01:43:44.053Z,40.9
2022-11-30T01:45:50.449Z,49.2
2022-11-30T01:47:53.489Z,39.6
2022-11-30T01:54:02.706Z,30.7
2022-11-30T01:58:08.912Z,27.4
2022-11-30T02:00:15.166Z,29.9
2022-11-30T02:02:18.336Z,43.9
2022-11-30T02:04:21.347Z,27.6
2022-11-30T02:06:24.411Z,29.7
2022-11-30T02:08:27.593Z,33.2
2022-11-30T02:10:30.612Z,29.1
2022-11-30T02:12:33.707Z,30
2022-11-30T02:14:39.986Z,37.7
2022-11-30T02:16:43.069Z,33.6
2022-11-30T02:18:46.170Z,51.1
2022-11-30T02:20:49.241Z,46.4
2022-11-30T02:22:52.346Z,36.8
2022-11-30T02:24:55.410Z,36.7
2022-11-30T02:26:58.511Z,39.1
2022-11-30T02:29:04.806Z,41.4
2022-11-30T02:31:07.953Z,41.3
2022-11-30T02:33:10.974Z,36.5
2022-11-30T02:34:14.121Z,36.1
2022-11-30T02:36:17.195Z,50.8
2022-11-30T02:38:20.291Z,32
2022-11-30T02:40:23.360Z,38.3
2022-11-30T02:42:29.673Z,46.5
2022-11-30T02:44:32.727Z,39.1
2022-11-30T02:46:35.877Z,35.2
2022-11-30T02:48:38.914Z,31.8
2022-11-30T02:50:42.016Z,47.3
2022-11-30T02:52:45.065Z,63
2022-11-30T02:54:48.556Z,41
2022-11-30T02:56:54.411Z,38.8
2022-11-30T02:58:57.489Z,38
2022-11-30T03:01:00.572Z,39.8
2022-11-30T03:03:03.667Z,41.4
2022-11-30T03:11:19.165Z,50.2
2022-11-30T03:29:49.982Z,54.2
2022-11-30T03:39:08.587Z,67
2022-11-30T03:41:11.639Z,53.9
2022-11-30T03:45:17.792Z,58.8
2022-11-30T03:47:20.823Z,75.1
2022-11-30T03:49:23.885Z,60.2
2022-11-30T03:53:33.221Z,77.8
2022-11-30T03:55:36.288Z,56.9
2022-11-30T03:57:39.366Z,75.2
2022-11-30T03:59:42.397Z,75.7
2022-11-30T04:01:45.509Z,64.1
2022-11-30T04:03:48.505Z,75.8
2022-11-30T04:05:51.570Z,68.1
2022-11-30T04:07:57.902Z,76.2
2022-11-30T04:10:05.248Z,74.4
2022-11-30T04:12:03.923Z,74.8
2022-11-30T04:14:06.991Z,82.4
2022-11-30T04:16:10.228Z,66.4
2022-11-30T04:18:13.100Z,81.4
2022-11-30T04:20:16.137Z,73.9
2022-11-30T04:22:22.394Z,94.8
2022-11-30T04:24:25.445Z,87.2
2022-11-30T04:26:28.518Z,79.1
2022-11-30T04:29:00.334Z,77.7
2022-11-30T04:35:10.781Z,76
2022-11-30T04:41:19.908Z,94.3
2022-11-30T04:43:22.949Z,93.1
2022-11-30T04:51:38.331Z,90
2022-11-30T04:53:41.378Z,71.5
2022-11-30T04:57:47.491Z,79.6
2022-11-30T04:59:50.545Z,68
2022-11-30T05:01:53.622Z,73
2022-11-30T05:03:59.940Z,78.2
2022-11-30T05:06:02.855Z,77.2
2022-11-30T05:08:05.925Z,72
2022-11-30T05:10:08.966Z,71.6
2022-11-30T05:12:12.010Z,78.4
2022-11-30T05:14:15.022Z,67.8
2022-11-30T05:16:18.143Z,92.5
2022-11-30T05:18:24.310Z,97.4
2022-11-30T05:20:27.403Z,87.6
2022-11-30T05:22:31.971Z,84.8
2022-11-30T05:23:35.069Z,84
2022-11-30T05:25:38.130Z,80.3
2022-11-30T05:27:41.106Z,99.3
2022-11-30T05:31:50.471Z,115.4
2022-11-30T05:33:53.432Z,98.4
2022-11-30T05:35:56.449Z,114.5
2022-11-30T05:37:59.492Z,102.4
2022-11-30T05:40:02.495Z,99.9
2022-11-30T05:42:05.555Z,121.9
2022-11-30T05:44:08.583Z,120.5
2022-11-30T05:46:14.889Z,118.8
2022-11-30T05:48:17.816Z,142
2022-11-30T05:50:20.844Z,125.2
2022-11-30T05:52:23.860Z,118.8
2022-11-30T05:54:26.895Z,135.9
2022-11-30T05:56:29.920Z,117.2
2022-11-30T05:58:32.901Z,134
2022-11-30T06:00:39.130Z,139.8
2022-11-30T06:02:42.315Z,148.6
2022-11-30T06:04:45.567Z,137.9
2022-11-30T06:06:48.209Z,146.2
2022-11-30T06:08:51.228Z,144.5
2022-11-30T06:10:54.251Z,144.7
2022-11-30T06:12:57.270Z,146
2022-11-30T06:15:03.515Z,157.4
2022-11-30T06:17:06.519Z,157.7
2022-11-30T06:19:09.545Z,145.6
2022-11-30T06:20:12.654Z,138.4
2022-11-30T06:22:15.690Z,135.9
2022-11-30T06:24:18.719Z,152.6
2022-11-30T06:26:21.744Z,130.4
2022-11-30T06:28:27.981Z,166.9
2022-11-30T06:30:31.182Z,139.7
2022-11-30T06:32:34.018Z,180.8
2022-11-30T06:34:37.046Z,169.3
2022-11-30T06:36:40.068Z,132.8
2022-11-30T06:38:43.080Z,160
2022-11-30T06:40:46.132Z,154.8
2022-11-30T06:42:52.360Z,169.2
2022-11-30T06:44:55.379Z,153.2
2022-11-30T06:46:58.412Z,145.4
2022-11-30T06:49:01.428Z,188.5
2022-11-30T06:51:04.460Z,158.5
2022-11-30T06:53:07.460Z,145.8
2022-11-30T06:55:10.492Z,214.9
2022-11-30T06:57:16.718Z,186.1
2022-11-30T06:59:19.773Z,194
2022-11-30T07:01:22.793Z,193.2
2022-11-30T07:03:25.796Z,204.5
2022-11-30T07:05:28.818Z,245.2
2022-11-30T07:07:31.938Z,208.9
2022-11-30T07:09:34.867Z,205.5
2022-11-30T07:11:41.117Z,205.4
2022-11-30T07:13:44.149Z,198.9
2022-11-30T07:15:47.146Z,203
2022-11-30T07:16:50.317Z,198.2
2022-11-30T07:27:08.668Z,206.4
2022-11-30T07:29:11.735Z,192.2
2022-11-30T07:33:17.794Z,166.2
2022-11-30T07:35:20.853Z,161.8
2022-11-30T07:37:23.878Z,162.1
2022-11-30T07:39:30.152Z,155.3
2022-11-30T07:47:42.296Z,154.9
2022-11-30T07:49:45.361Z,162
2022-11-30T07:51:48.397Z,133.6
2022-11-30T07:53:54.655Z,144.9
2022-11-30T07:55:57.722Z,114.4
2022-11-30T08:04:09.933Z,119.7
2022-11-30T08:08:19.196Z,121.1
2022-11-30T08:10:22.426Z,105.3
2022-11-30T08:15:17.982Z,90.6
2022-11-30T08:16:52.580Z,126.7
2022-11-30T08:18:55.518Z,90.8
2022-11-30T08:21:01.772Z,93.9
2022-11-30T08:23:04.835Z,90.5
2022-11-30T08:25:07.884Z,103.8
2022-11-30T08:27:10.937Z,89
2022-11-30T08:29:13.986Z,100.7
2022-11-30T08:31:17.037Z,81.7
2022-11-30T08:35:26.341Z,92.3
2022-11-30T08:37:29.377Z,98.6
2022-11-30T08:39:32.416Z,100.2
2022-11-30T08:41:35.473Z,122.5
2022-11-30T08:43:38.508Z,129.7
2022-11-30T08:45:41.645Z,98.2
2022-11-30T08:47:44.627Z,118.1
2022-11-30T08:49:50.887Z,114.1
2022-11-30T08:52:17.669Z,115.6
2022-11-30T08:53:57.014Z,113.9
2022-11-30T08:56:00.071Z,105.7
2022-11-30T08:58:03.117Z,119.4
2022-11-30T09:02:09.305Z,120.5
2022-11-30T09:04:15.464Z,124.4
2022-11-30T09:06:18.533Z,120.8
2022-11-30T09:08:21.587Z,137.3
2022-11-30T09:09:24.744Z,121.2
2022-11-30T09:11:27.786Z,99.5
2022-11-30T09:13:30.862Z,124.6
2022-11-30T09:15:33.983Z,125.1
2022-11-30T09:17:40.173Z,113.5
2022-11-30T09:19:43.340Z,103.5
2022-11-30T09:21:51.506Z,114.8
2022-11-30T09:23:49.359Z,113.6
2022-11-30T09:25:52.417Z,120.7
2022-11-30T09:29:58.532Z,110.5
2022-11-30T09:32:04.793Z,106.4
2022-11-30T09:34:07.866Z,121.3
2022-11-30T09:36:10.948Z,102.7
2022-11-30T09:38:14.010Z,103.1
2022-11-30T09:40:17.059Z,100.9
2022-11-30T09:42:20.132Z,91.9
2022-11-30T09:44:23.194Z,84.5
2022-11-30T09:46:29.518Z,72.6
2022-11-30T09:48:32.570Z,89.4
2022-11-30T09:50:35.822Z,91.5
2022-11-30T09:52:38.661Z,79.6
2022-11-30T09:54:41.777Z,81.2
2022-11-30T09:56:44.839Z,71.9
2022-11-30T09:58:47.917Z,74.5
2022-11-30T10:00:54.180Z,63.2
2022-11-30T10:02:57.347Z,67.2
2022-11-30T10:05:00.304Z,82.7
2022-11-30T10:06:03.455Z,72.3
2022-11-30T10:08:06.617Z,64.6
2022-11-30T10:10:30.908Z,74.1
2022-11-30T10:12:12.688Z,59.3
2022-11-30T10:14:18.995Z,54.3
2022-11-30T10:16:22.119Z,74.2
2022-11-30T10:18:25.105Z,54.9
2022-11-30T10:22:31.283Z,56.9
2022-11-30T10:24:34.366Z,49.1
2022-11-30T10:26:37.453Z,48.2
2022-11-30T10:28:48.198Z,46
2022-11-30T10:30:46.855Z,39.2
2022-11-30T10:32:49.901Z,42.4
2022-11-30T10:34:52.999Z,44.1
2022-11-30T10:36:56.058Z,32
2022-11-30T10:38:59.138Z,32.8
2022-11-30T10:41:02.208Z,38.3
2022-11-30T10:43:08.484Z,35.7
2022-11-30T10:45:11.621Z,30.2
2022-11-30T10:47:14.689Z,28.2
2022-11-30T10:49:17.797Z,44.2
2022-11-30T10:51:20.897Z,29
2022-11-30T10:53:23.988Z,44.8
2022-11-30T10:55:27.102Z,24.8
2022-11-30T10:57:33.442Z,30.4
2022-11-30T10:59:36.513Z,36.1
2022-11-30T11:01:39.663Z,31.3
2022-11-30T11:02:42.853Z,26.3
2022-11-30T11:04:45.906Z,25
2022-11-30T11:06:49.164Z,22.1
2022-11-30T11:08:52.119Z,30.5
2022-11-30T11:10:58.481Z,30.6
2022-11-30T11:13:01.608Z,27.2
2022-11-30T11:15:04.718Z,31.3
2022-11-30T11:17:09.426Z,26.5
2022-11-30T11:19:12.506Z,27.9
2022-11-30T11:21:15.621Z,30.3
2022-11-30T11:23:18.754Z,30.4
2022-11-30T11:25:25.096Z,28.1
2022-11-30T11:27:28.192Z,41.5
2022-11-30T11:29:31.378Z,21.8
2022-11-30T11:31:34.572Z,26.5
2022-11-30T11:33:37.606Z,34.7
2022-11-30T11:37:43.818Z,30.5
2022-11-30T11:39:50.159Z,27.3
2022-11-30T11:41:53.228Z,25.2
2022-11-30T11:43:56.318Z,29.5
2022-11-30T11:45:59.477Z,35.1
2022-11-30T11:48:02.586Z,27.6
2022-11-30T11:50:05.693Z,34.9
2022-11-30T11:52:08.786Z,35.9
2022-11-30T11:54:15.136Z,34.6
2022-11-30T11:56:18.214Z,42
2022-11-30T11:58:21.336Z,35.9
2022-11-30T12:00:51.123Z,30.5
2022-11-30T12:04:57.333Z,25.4
2022-11-30T12:09:06.780Z,31.7
2022-11-30T12:11:09.886Z,26
2022-11-30T12:13:12.999Z,34.4
2022-11-30T12:15:16.107Z,40.8
2022-11-30T12:17:19.230Z,32
2022-11-30T12:19:22.326Z,35
2022-11-30T12:29:41.057Z,22.4
2022-11-30T12:31:44.205Z,28.9
2022-11-30T12:33:47.241Z,30
2022-11-30T12:35:53.562Z,20.9
2022-11-30T12:37:56.678Z,23.4
2022-11-30T12:39:59.803Z,33.6
2022-11-30T12:42:02.888Z,41.2
2022-11-30T12:44:05.989Z,24.8
2022-11-30T12:46:09.161Z,46.8
2022-11-30T12:48:12.210Z,24.6
2022-11-30T12:50:18.547Z,30.4
2022-11-30T12:52:21.633Z,33
2022-11-30T12:54:24.731Z,30.1
2022-11-30T12:55:27.894Z,28.8
2022-11-30T12:57:30.997Z,40.8
2022-11-30T12:59:34.103Z,35.6
2022-11-30T13:05:46.612Z,30.7
2022-11-30T13:07:49.724Z,30.2
2022-11-30T13:11:55.907Z,35.1
2022-11-30T13:13:59.004Z,32.8
2022-11-30T13:18:08.409Z,27
2022-11-30T13:22:14.628Z,31.4
2022-11-30T13:28:23.875Z,32.3
2022-11-30T13:30:27.003Z,32.5
2022-11-30T13:32:57.304Z,34.5
2022-11-30T13:34:36.387Z,25.2
2022-11-30T13:36:39.480Z,38.1
2022-11-30T13:38:42.586Z,44.7
2022-11-30T13:40:45.647Z,40.4
2022-11-30T13:42:51.802Z,35.5
2022-11-30T13:44:51.874Z,34.2
2022-11-30T13:46:58.161Z,30.7
2022-11-30T13:49:01.194Z,28.4
2022-11-30T13:52:23.471Z,31.8
2022-11-30T13:54:26.718Z,43.6
2022-11-30T13:56:13.613Z,31.6
2022-11-30T13:58:16.697Z,38.1
2022-11-30T14:00:22.979Z,48.3
2022-11-30T14:02:26.196Z,39
2022-11-30T14:04:29.166Z,40
2022-11-30T14:08:35.339Z,43.9
2022-11-30T14:10:38.459Z,40.9
2022-11-30T14:12:41.565Z,33.3
2022-11-30T14:14:47.810Z,41.3
2022-11-30T14:16:50.885Z,40.1
2022-11-30T14:18:53.979Z,42.9
2022-11-30T14:20:57.079Z,39.5
2022-11-30T14:23:00.224Z,36.3
2022-11-30T14:25:03.253Z,46.5
2022-11-30T14:27:06.321Z,37.4
2022-11-30T14:29:12.589Z,34.7
2022-11-30T14:31:15.805Z,48.6
2022-11-30T14:33:19.930Z,38.1
2022-11-30T14:35:21.905Z,43.2
2022-11-30T14:37:24.919Z,46.6
2022-11-30T14:39:28.004Z,47.2
2022-11-30T14:41:31.100Z,37.4
2022-11-30T14:43:37.484Z,32.2
2022-11-30T14:45:40.497Z,36.6
2022-11-30T14:47:47.991Z,53.5
2022-11-30T14:48:46.715Z,40.1
2022-11-30T14:54:55.992Z,53.3
2022-11-30T14:59:05.348Z,37.8
2022-11-30T15:01:08.471Z,38.9
2022-11-30T15:03:11.527Z,35.5
2022-11-30T15:07:17.911Z,45.5
2022-11-30T15:09:20.749Z,43.1
2022-11-30T15:11:27.039Z,28.3
2022-11-30T15:19:39.362Z,39.2
2022-11-30T15:23:50.674Z,34.8
2022-11-30T15:29:58.001Z,30.6
2022-11-30T15:32:01.160Z,31.5
2022-11-30T15:34:04.174Z,28.6
2022-11-30T15:36:31.423Z,29.7
2022-11-30T15:38:10.365Z,33.1
2022-11-30T15:40:16.631Z,31.1
2022-11-30T15:42:19.703Z,40.8
2022-11-30T15:44:22.804Z,30.8
2022-11-30T15:46:52.651Z,33.2
2022-11-30T15:48:55.745Z,31
2022-11-30T15:50:58.810Z,32.7
2022-11-30T15:53:05.088Z,28.7
2022-11-30T15:55:08.191Z,33.5
2022-11-30T15:57:11.286Z,32.4
2022-11-30T16:01:17.569Z,33
2022-11-30T16:07:29.986Z,33.8
2022-11-30T16:09:32.949Z,40.5
2022-11-30T16:11:36.045Z,41.4
2022-11-30T16:13:39.135Z,23.9
2022-11-30T16:15:42.228Z,38.9
2022-11-30T16:19:48.773Z,35.3
2022-11-30T16:21:54.692Z,33.5
2022-11-30T16:23:57.792Z,35.8
2022-11-30T16:26:00.981Z,40.2
2022-11-30T16:30:07.049Z,31.9
2022-11-30T16:32:10.220Z,36.4
2022-11-30T16:34:13.219Z,26.5
2022-11-30T16:36:19.527Z,46.4
2022-11-30T16:38:22.609Z,68.9
2022-11-30T16:40:25.698Z,42.2
2022-11-30T16:41:28.848Z,49.1
2022-11-30T16:43:31.948Z,34.3
2022-11-30T16:47:38.094Z,40.8
2022-11-30T16:49:44.428Z,39.4
2022-11-30T16:51:47.459Z,42.4
2022-11-30T16:53:50.536Z,38.7
2022-11-30T16:55:53.860Z,38
2022-11-30T16:57:56.707Z,50.5
2022-11-30T16:59:59.793Z,36.7
2022-11-30T17:02:03.026Z,33.2
2022-11-30T17:04:09.148Z,48.7
2022-11-30T17:06:12.232Z,37.1
2022-11-30T17:08:15.335Z,46.9
2022-11-30T17:10:18.434Z,47.3
2022-11-30T17:12:23.028Z,47.1
2022-11-30T17:14:26.064Z,42.7
2022-11-30T17:16:29.252Z,43.7
2022-11-30T17:18:35.438Z,54.3
2022-11-30T17:20:38.527Z,47.6
2022-11-30T17:22:41.572Z,44.5
2022-11-30T17:24:44.757Z,45.8
2022-11-30T17:26:47.749Z,37.2
2022-11-30T17:28:50.846Z,54.4
2022-11-30T17:30:54.002Z,52.7
2022-11-30T17:33:00.216Z,43
2022-11-30T17:35:03.262Z,43.5
2022-11-30T17:37:06.358Z,54.4
2022-11-30T17:38:09.511Z,62.8
2022-11-30T17:40:12.580Z,40.1
2022-11-30T17:42:15.670Z,41.1
2022-11-30T17:44:18.748Z,41.7
2022-11-30T17:46:25.297Z,45.7
2022-11-30T17:48:28.142Z,50.8
2022-11-30T17:50:31.218Z,44.4
2022-11-30T17:52:34.295Z,48.2
2022-11-30T17:54:37.372Z,49
2022-11-30T17:56:40.471Z,44.2
2022-11-30T17:58:44.342Z,38.7
2022-11-30T18:00:49.841Z,42.7
2022-11-30T18:02:53.014Z,57.3
2022-11-30T18:04:55.967Z,53
2022-11-30T18:06:59.059Z,38.5
2022-11-30T18:09:02.189Z,64.9
2022-11-30T18:17:17.646Z,38.9
2022-11-30T18:19:20.752Z,43.5
2022-11-30T18:21:23.813Z,53
2022-11-30T18:23:26.916Z,54
2022-11-30T18:25:29.951Z,46.2
2022-11-30T18:27:33.052Z,47.5
2022-11-30T18:33:45.485Z,53.5
2022-11-30T18:34:48.927Z,58.8
2022-11-30T18:36:51.705Z,60.9
2022-11-30T18:38:54.785Z,54.7
2022-11-30T18:40:57.873Z,51.5
2022-11-30T18:45:07.226Z,58.8
2022-11-30T18:47:10.336Z,55.8
2022-11-30T18:49:13.378Z,54.9
2022-11-30T18:51:16.472Z,46.8
2022-11-30T18:53:19.539Z,50.6
2022-11-30T18:55:22.616Z,49.8
2022-11-30T18:57:28.904Z,49.1
2022-11-30T18:59:31.995Z,50.4
2022-11-30T19:01:35.175Z,36.7
2022-11-30T19:03:38.177Z,38.7
2022-11-30T19:05:41.201Z,54.2
2022-11-30T19:07:44.327Z,41.8
2022-11-30T19:09:47.387Z,60.5
2022-11-30T19:11:53.687Z,53
2022-11-30T19:13:56.764Z,59.7
2022-11-30T19:15:59.814Z,42.9
2022-11-30T19:18:02.898Z,59.2
2022-11-30T19:20:05.994Z,52.9
2022-11-30T19:22:09.089Z,71.9
2022-11-30T19:24:12.148Z,58.6
2022-11-30T19:26:18.440Z,57.3
2022-11-30T19:28:21.512Z,58.1
2022-11-30T19:30:24.609Z,74
2022-11-30T19:32:54.461Z,59.6
2022-11-30T19:34:57.507Z,89.6
2022-11-30T19:37:00.597Z,83.2
2022-11-30T19:39:06.870Z,79.8
2022-11-30T19:41:09.947Z,64.7
2022-11-30T19:43:13.028Z,81.5
2022-11-30T19:45:16.090Z,73.4
2022-11-30T19:53:31.623Z,94.1
2022-11-30T19:55:34.884Z,84.5
2022-11-30T19:57:37.770Z,76.1
2022-11-30T19:59:40.849Z,97.3
2022-11-30T20:01:44.069Z,95.1
2022-11-30T20:03:47.019Z,85.7
2022-11-30T20:05:50.052Z,61
2022-11-30T20:07:56.402Z,69.5
2022-11-30T20:09:59.413Z,72.1
2022-11-30T20:12:02.515Z,81.2
2022-11-30T20:14:05.587Z,93.6
2022-11-30T20:16:08.745Z,105.2
2022-11-30T20:18:11.720Z,91.6
2022-11-30T20:20:14.801Z,80.9
2022-11-30T20:22:21.095Z,79.2
2022-11-30T20:24:24.170Z,110.4
2022-11-30T20:26:27.248Z,102
2022-11-30T20:27:30.375Z,74.7
2022-11-30T20:29:33.443Z,83.1
2022-11-30T20:31:36.558Z,80.7
2022-11-30T20:33:39.589Z,86.8
2022-11-30T20:35:45.889Z,102
2022-11-30T20:37:48.932Z,94.9
2022-11-30T20:39:52.024Z,80.1
2022-11-30T20:41:55.108Z,96.5
2022-11-30T20:43:58.181Z,87.6
2022-11-30T20:46:01.301Z,78.6
2022-11-30T20:48:04.311Z,98
2022-11-30T20:50:10.582Z,82.2
2022-11-30T20:52:13.661Z,84.1
2022-11-30T20:54:16.743Z,97.7
2022-11-30T20:56:19.815Z,101
2022-11-30T20:58:22.899Z,76.4
2022-11-30T21:00:25.984Z,86.2
2022-11-30T21:02:29.102Z,84.9
2022-11-30T21:04:35.315Z,103.7
2022-11-30T21:06:38.397Z,101
2022-11-30T21:08:41.470Z,103.5
2022-11-30T21:12:47.623Z,116.7
2022-11-30T21:14:50.842Z,107.6
2022-11-30T21:16:53.765Z,104.6
2022-11-30T21:19:00.079Z,104.2
2022-11-30T21:23:06.204Z,98.1
2022-11-30T21:24:09.336Z,100.3
2022-11-30T21:26:12.401Z,124.9
2022-11-30T21:28:15.466Z,108.8
2022-11-30T21:30:18.545Z,119.9
2022-11-30T21:32:24.827Z,111.3
2022-11-30T21:34:27.895Z,102
2022-11-30T21:36:30.982Z,95.6
2022-11-30T21:38:34.041Z,114.4
2022-11-30T21:40:37.120Z,125.9
2022-11-30T21:42:40.222Z,104.6
2022-11-30T21:44:43.279Z,95.8
2022-11-30T21:46:49.584Z,117.6
2022-11-30T21:48:52.612Z,97
2022-11-30T21:52:58.760Z,94.6
2022-11-30T21:55:01.841Z,95.4
2022-11-30T21:57:04.881Z,96.9
2022-11-30T21:59:07.944Z,94.6
2022-11-30T22:01:14.228Z,106.2
2022-11-30T22:03:19.568Z,104
2022-11-30T22:05:20.428Z,107.3
2022-11-30T22:07:23.538Z,88.7
2022-11-30T22:09:26.553Z,90.7
2022-11-30T22:11:29.616Z,100.4
2022-11-30T22:13:32.711Z,99.3
2022-11-30T22:15:39.039Z,95.3
2022-11-30T22:17:42.047Z,87.3
2022-11-30T22:19:45.283Z,74.7
2022-11-30T22:24:54.410Z,80.9
2022-11-30T22:26:57.509Z,65.1
2022-11-30T22:29:03.752Z,83.6
2022-11-30T22:31:06.898Z,62.6
2022-11-30T22:33:09.870Z,54.2
2022-11-30T22:35:12.961Z,76.3
2022-11-30T22:37:16.027Z,68.4
2022-11-30T22:39:19.107Z,74.7
2022-11-30T22:41:22.205Z,63.4
2022-11-30T22:43:28.453Z,56
2022-11-30T22:49:37.722Z,55.9
2022-11-30T22:51:40.757Z,77.5
2022-11-30T22:55:48.289Z,64.3
2022-11-30T22:57:53.173Z,56.7
2022-11-30T22:59:56.253Z,78.2
2022-11-30T23:01:59.312Z,58.9
2022-11-30T23:04:02.452Z,58
2022-11-30T23:06:05.471Z,66.8
2022-11-30T23:08:10.238Z,62.1
2022-11-30T23:10:13.163Z,71.6
2022-11-30T23:12:42.908Z,65.4
2022-11-30T23:14:22.474Z,61.5
2022-11-30T23:16:25.668Z,56.6
2022-11-30T23:20:58.494Z,64.4
2022-11-30T23:23:01.543Z,67
2022-11-30T23:31:33.683Z,72.7
2022-11-30T23:33:20.116Z,65.8
2022-11-30T23:35:23.167Z,60.4
2022-11-30T23:37:26.223Z,74.1
2022-11-30T23:39:32.535Z,68.8
2022-11-30T23:41:35.586Z,75.8
2022-11-30T23:43:38.653Z,70.6
2022-11-30T23:45:41.708Z,70.4
2022-11-30T23:47:44.776Z,70.3
2022-11-30T23:49:48.137Z,89.6
2022-11-30T23:51:50.926Z,68.3
2022-11-30T23:53:57.180Z,73.3
2022-11-30T23:56:00.438Z,73.9
2022-11-30T23:58:03.341Z,75.8
